Cdry Blue — ICOB — position and weather

sailwx.info

Track history (hours):
 
Tides and Currents Weather Stations Pressure Air Temp Water Temp Dewpoint Dewpoint Depression Visibility Wind Speed Wind Dir Waves Ship Positions

Cdry Blue

Last reported at 2015-Aug-02 01:14 UTC. Time now 2015-Aug-03 00:28 UTC.
Position N 37°38' E 020°24'.

Length 108 m; draft 4.7 m.

Type: Cargo ship. MMSI: 247289300.

Date/timePositionNaut miles runAvg speedWind from/ knotsBaromVisibWave heightAir tempDewpointWater temp
2015-Aug-02 01:14N 37°38' E 020°24'160 9.6
2015-Aug-01 08:32N 36°56' E 023°37'1313.1
2015-Aug-01 07:33N 37°07' E 023°46'2913.4
2015-Aug-01 05:25N 37°31' E 024°05'  
2015-Jul-26 05:19N 37°49' E 024°25'2111.7
2015-Jul-26 03:31N 37°32' E 024°08'1111.1
2015-Jul-26 02:34N 37°23' E 024°01'1110.6
2015-Jul-26 01:34N 37°14' E 023°54'1111.3
2015-Jul-26 00:33N 37°05' E 023°46'1111.1
2015-Jul-25 23:34N 36°55' E 023°39'1111.1
2015-Jul-25 22:34N 36°46' E 023°32'1411.0
2015-Jul-25 21:16N 36°34' E 023°23'1310.6
2015-Jul-25 20:04N 36°23' E 023°14'610.7
2015-Jul-25 19:33N 36°23' E 023°07'36210.9
2015-Jul-24 10:24N 37°53' E 015°48'910.1
2015-Jul-24 09:33N 37°56' E 015°38'1010.0
2015-Jul-24 08:33N 38°06' E 015°35'1010.0
2015-Jul-24 07:33N 38°15' E 015°38'9 8.8
2015-Jul-24 06:33N 38°23' E 015°34'1211.3
2015-Jul-24 05:32N 38°32' E 015°24'1111.1
2015-Jul-24 04:33N 38°40' E 015°15'1111.0
2015-Jul-24 03:32N 38°47' E 015°04'20710.9
2015-Jul-23 08:32N 40°33' E 011°13'1111.0
2015-Jul-23 07:32N 40°39' E 011°01'  
Track history (hours):
 
Tides and Currents Weather Stations Pressure Air Temp Water Temp Dewpoint Dewpoint Depression Visibility Wind Speed Wind Dir Waves Ship Positions

Cdry Blue

Last reported at 2015-Aug-02 01:14 UTC. Time now 2015-Aug-03 00:28 UTC.
Position N 37°38' E 020°24'.

Length 108 m; draft 4.7 m.

Type: Cargo ship. MMSI: 247289300.

Date/timePositionNaut miles runAvg speedWind from/ knotsBaromVisibWave heightAir tempDewpointWater temp
2015-Aug-02 01:14N 37°38' E 020°24'160 9.6
2015-Aug-01 08:32N 36°56' E 023°37'1313.1
2015-Aug-01 07:33N 37°07' E 023°46'2913.4
2015-Aug-01 05:25N 37°31' E 024°05'  
2015-Jul-26 05:19N 37°49' E 024°25'2111.7
2015-Jul-26 03:31N 37°32' E 024°08'1111.1
2015-Jul-26 02:34N 37°23' E 024°01'1110.6
2015-Jul-26 01:34N 37°14' E 023°54'1111.3
2015-Jul-26 00:33N 37°05' E 023°46'1111.1
2015-Jul-25 23:34N 36°55' E 023°39'1111.1
2015-Jul-25 22:34N 36°46' E 023°32'1411.0
2015-Jul-25 21:16N 36°34' E 023°23'1310.6
2015-Jul-25 20:04N 36°23' E 023°14'610.7
2015-Jul-25 19:33N 36°23' E 023°07'36210.9
2015-Jul-24 10:24N 37°53' E 015°48'910.1
2015-Jul-24 09:33N 37°56' E 015°38'1010.0
2015-Jul-24 08:33N 38°06' E 015°35'1010.0
2015-Jul-24 07:33N 38°15' E 015°38'9 8.8
2015-Jul-24 06:33N 38°23' E 015°34'1211.3
2015-Jul-24 05:32N 38°32' E 015°24'1111.1
2015-Jul-24 04:33N 38°40' E 015°15'1111.0
2015-Jul-24 03:32N 38°47' E 015°04'20710.9
2015-Jul-23 08:32N 40°33' E 011°13'1111.0
2015-Jul-23 07:32N 40°39' E 011°01'  

Dump ship's entire track history